Time;durP1;ratioP1;P1;durP2;ratioP2;P2;SDS_P1;SDS_P2;PMS_P1;PMS_P2;Temp;Humidity;BMP_temperature;BMP_pressure;BME280_temperature;BME280_humidity;BME280_pressure;Samples;Min_cycle;Max_cycle;Signal;HPM_P1;HPM_P2
2021/08/14 00:00:24;;;;;;;7.53;6.70;;;;;;;18.42;62.45;94208.84;5099728;28;20024;-58
2021/08/14 00:02:50;;;;;;;7.65;6.70;;;;;;;18.37;62.74;94206.31;5097949;28;20110;-58
2021/08/14 00:05:15;;;;;;;7.90;7.10;;;;;;;18.28;62.83;94201.44;5101162;28;20073;-58
2021/08/14 00:07:41;;;;;;;8.85;7.75;;;;;;;18.26;63.29;94209.66;5110740;28;20435;-57
2021/08/14 00:10:07;;;;;;;10.00;7.32;;;;;;;18.23;63.75;94208.03;5110821;28;20027;-57
2021/08/14 00:12:32;;;;;;;7.32;6.63;;;;;;;18.11;63.74;94205.00;5107626;28;20032;-58
2021/08/14 00:14:58;;;;;;;8.23;7.22;;;;;;;18.18;64.21;94204.19;5099498;28;20032;-57
2021/08/14 00:17:23;;;;;;;8.52;7.35;;;;;;;18.12;64.24;94210.03;5106765;28;20016;-57
2021/08/14 00:19:48;;;;;;;10.15;7.65;;;;;;;18.04;64.24;94209.38;5111031;28;20031;-57
2021/08/14 00:22:14;;;;;;;11.55;7.75;;;;;;;18.06;64.03;94209.53;5111003;28;20023;-55
2021/08/14 00:24:39;;;;;;;9.20;8.27;;;;;;;17.99;64.57;94212.47;5098906;28;20501;-52
2021/08/14 00:27:05;;;;;;;10.40;7.97;;;;;;;18.02;64.63;94212.03;5090281;28;20073;-55
2021/08/14 00:29:30;;;;;;;11.77;7.55;;;;;;;18.05;64.55;94219.25;5090976;28;20165;-55
2021/08/14 00:31:56;;;;;;;37.08;8.63;;;;;;;17.83;64.30;94195.16;5090642;28;20020;-57
2021/08/14 00:34:21;;;;;;;9.20;7.40;;;;;;;18.10;63.93;94214.72;5090590;28;20020;-58
2021/08/14 00:36:46;;;;;;;10.40;7.05;;;;;;;18.01;64.02;94224.53;5093783;28;20031;-58
2021/08/14 00:39:12;;;;;;;10.30;7.28;;;;;;;17.96;64.08;94219.19;5105689;28;20039;-59
2021/08/14 00:41:37;;;;;;;13.27;7.20;;;;;;;17.97;64.04;94227.03;5100104;28;20024;-59
2021/08/14 00:44:03;;;;;;;10.57;7.40;;;;;;;17.96;64.08;94210.81;5099037;28;20019;-59
2021/08/14 00:46:30;;;;;;;9.70;6.88;;;;;;;17.91;64.86;94225.81;5099451;28;20016;-57
2021/08/14 00:48:59;;;;;;;10.75;6.78;;;;;;;17.91;64.36;94242.56;5110619;28;20023;-57
2021/08/14 00:51:25;;;;;;;14.52;7.28;;;;;;;17.82;64.49;94241.16;5109894;28;20080;-62
2021/08/14 00:53:50;;;;;;;11.45;7.20;;;;;;;17.83;64.94;94237.06;5104165;28;20440;-58
2021/08/14 00:56:20;;;;;;;6.70;5.97;;;;;;;17.81;64.67;94234.09;5091569;28;20489;-58
2021/08/14 00:58:46;;;;;;;9.90;6.82;;;;;;;17.83;64.58;94234.25;5097097;28;20475;-58
2021/08/14 01:01:11;;;;;;;8.68;7.53;;;;;;;17.54;65.29;94193.50;5089876;28;20079;-59
2021/08/14 01:03:37;;;;;;;10.60;6.93;;;;;;;17.77;65.66;94224.66;5102627;28;20019;-58
2021/08/14 01:06:02;;;;;;;9.23;7.20;;;;;;;17.66;66.26;94219.59;5098835;28;20028;-58
2021/08/14 01:08:28;;;;;;;9.70;7.45;;;;;;;17.47;66.48;94222.19;5101613;28;20021;-59
2021/08/14 01:10:53;;;;;;;8.38;7.35;;;;;;;17.51;66.23;94222.56;5100637;28;20112;-59
2021/08/14 01:13:19;;;;;;;12.02;7.05;;;;;;;17.47;66.33;94225.00;5093091;28;20104;-60
2021/08/14 01:15:47;;;;;;;11.50;7.15;;;;;;;17.41;66.25;94220.38;5088724;28;20443;-59
2021/08/14 01:18:13;;;;;;;7.78;6.97;;;;;;;17.37;66.66;94224.91;5089933;28;20043;-59
2021/08/14 01:20:40;;;;;;;7.65;6.65;;;;;;;17.41;66.60;94222.47;5095910;28;20024;-58
2021/08/14 01:23:06;;;;;;;8.32;7.10;;;;;;;17.43;66.79;94231.00;5088238;28;20040;-58
2021/08/14 01:25:31;;;;;;;11.13;7.60;;;;;;;17.42;67.41;94223.94;5089965;28;20519;-59
2021/08/14 01:27:57;;;;;;;12.73;8.18;;;;;;;17.40;67.31;94218.94;5089552;28;20024;-58
2021/08/14 01:30:22;;;;;;;10.15;7.35;;;;;;;17.41;67.60;94214.09;5089801;28;20031;-58
2021/08/14 01:32:47;;;;;;;8.93;7.97;;;;;;;17.33;68.12;94213.41;5089871;28;20098;-58
2021/08/14 01:35:13;;;;;;;15.98;8.63;;;;;;;17.35;68.38;94213.56;5103989;28;20032;-58
2021/08/14 01:37:38;;;;;;;10.40;8.50;;;;;;;17.40;68.22;94213.34;5109902;28;20024;-58
2021/08/14 01:40:05;;;;;;;9.85;7.10;;;;;;;17.40;66.71;94212.59;5109787;28;20024;-58
2021/08/14 01:42:30;;;;;;;9.52;6.65;;;;;;;17.34;66.59;94207.28;5109808;28;20030;-60
2021/08/14 01:44:56;;;;;;;12.65;7.85;;;;;;;17.20;66.85;94214.50;5108652;28;20027;-59
2021/08/14 01:47:21;;;;;;;8.35;6.70;;;;;;;17.15;67.23;94209.16;5091481;28;20696;-60
2021/08/14 01:49:47;;;;;;;7.78;7.07;;;;;;;17.01;68.00;94205.94;5100475;28;20035;-59
2021/08/14 01:52:14;;;;;;;8.65;7.75;;;;;;;17.08;68.23;94202.34;5104947;28;20039;-59
2021/08/14 01:54:41;;;;;;;14.48;8.10;;;;;;;17.13;68.03;94214.59;5102407;28;20047;-58
2021/08/14 01:57:07;;;;;;;8.15;6.88;;;;;;;17.13;68.15;94220.88;5095434;28;20073;-58
2021/08/14 01:59:33;;;;;;;8.88;7.53;;;;;;;17.07;68.00;94211.28;5101356;28;20517;-59
2021/08/14 02:01:59;;;;;;;9.20;7.00;;;;;;;17.00;68.03;94200.94;5099730;28;20024;-59
2021/08/14 02:04:25;;;;;;;8.98;6.78;;;;;;;17.11;67.80;94208.81;5104726;28;20047;-58
2021/08/14 02:06:50;;;;;;;8.85;7.78;;;;;;;17.16;67.61;94216.19;5093286;28;20043;-59
2021/08/14 02:09:16;;;;;;;11.68;8.00;;;;;;;17.10;67.88;94208.09;5093225;28;20021;-58
2021/08/14 02:11:41;;;;;;;11.75;7.85;;;;;;;16.96;68.20;94212.50;5093210;28;20027;-58
2021/08/14 02:14:07;;;;;;;7.80;6.97;;;;;;;16.97;67.94;94216.78;5092854;28;20016;-59
2021/08/14 02:16:35;;;;;;;8.50;7.18;;;;;;;16.88;67.54;94213.88;5098964;28;20088;-58
2021/08/14 02:19:02;;;;;;;8.63;7.50;;;;;;;16.89;67.21;94223.72;5113170;28;20484;-59
2021/08/14 02:21:28;;;;;;;8.48;6.90;;;;;;;16.91;67.35;94218.31;5112737;28;20042;-58
2021/08/14 02:23:54;;;;;;;12.02;7.55;;;;;;;16.91;67.30;94216.28;5112976;28;20035;-59
2021/08/14 02:26:19;;;;;;;8.43;7.45;;;;;;;16.82;67.41;94207.81;5113004;28;20019;-58
2021/08/14 02:28:45;;;;;;;8.32;6.93;;;;;;;16.80;67.39;94213.22;5107468;28;20040;-58
2021/08/14 02:31:10;;;;;;;8.55;7.00;;;;;;;16.58;67.37;94204.47;5102787;28;20420;-60
2021/08/14 02:33:36;;;;;;;6.78;6.05;;;;;;;16.56;67.07;94190.38;5102758;28;20028;-59
2021/08/14 02:36:03;;;;;;;8.77;6.90;;;;;;;16.78;67.09;94207.47;5112750;28;20032;-61
2021/08/14 02:38:29;;;;;;;12.98;6.78;;;;;;;16.71;66.87;94217.38;5112979;28;20037;-62
2021/08/14 02:40:54;;;;;;;11.00;7.15;;;;;;;16.68;67.01;94213.69;5112735;28;20549;-61
2021/08/14 02:43:20;;;;;;;8.13;7.32;;;;;;;16.56;67.38;94214.72;5112931;28;20020;-58
2021/08/14 02:45:45;;;;;;;7.57;6.88;;;;;;;16.64;67.02;94218.19;5112795;28;20096;-58
2021/08/14 02:48:12;;;;;;;8.90;6.68;;;;;;;16.56;66.78;94211.94;5112581;28;20019;-58
2021/08/14 02:50:39;;;;;;;9.85;6.80;;;;;;;16.57;67.24;94224.53;5112332;28;20099;-58
2021/08/14 02:53:04;;;;;;;9.10;8.05;;;;;;;16.58;67.43;94226.03;5112439;28;20024;-59
2021/08/14 02:55:29;;;;;;;10.02;9.02;;;;;;;16.38;67.96;94229.88;5112369;28;20022;-60
2021/08/14 02:57:55;;;;;;;13.73;9.55;;;;;;;16.33;68.11;94230.84;5102736;28;20020;-59
2021/08/14 03:00:20;;;;;;;10.43;9.23;;;;;;;16.30;68.25;94226.41;5091992;28;20028;-58
2021/08/14 03:02:46;;;;;;;10.57;9.48;;;;;;;16.31;68.54;94217.47;5091841;28;20032;-58
2021/08/14 03:05:11;;;;;;;10.02;8.38;;;;;;;16.37;68.56;94217.25;5091882;28;20016;-59
2021/08/14 03:07:37;;;;;;;13.00;9.45;;;;;;;16.23;69.18;94218.81;5091575;28;20047;-59
2021/08/14 03:10:03;;;;;;;9.45;8.50;;;;;;;16.26;68.79;94226.06;5091731;28;20050;-59
2021/08/14 03:12:29;;;;;;;10.43;8.35;;;;;;;16.20;69.17;94229.06;5095482;28;20027;-60
2021/08/14 03:14:54;;;;;;;10.63;8.77;;;;;;;16.21;69.00;94230.56;5112363;28;20097;-61
2021/08/14 03:17:20;;;;;;;9.55;8.40;;;;;;;16.29;68.48;94238.84;5112159;28;20553;-59
2021/08/14 03:19:45;;;;;;;10.82;9.15;;;;;;;16.12;68.96;94238.78;5112167;28;20031;-59
2021/08/14 03:22:11;;;;;;;9.13;8.27;;;;;;;16.26;68.44;94237.97;5111708;28;20508;-61
2021/08/14 03:24:38;;;;;;;16.50;8.88;;;;;;;16.23;68.84;94230.72;5112018;28;20039;-61
2021/08/14 03:27:04;;;;;;;9.80;7.90;;;;;;;16.25;68.06;94242.03;5111833;28;20024;-58
2021/08/14 03:29:29;;;;;;;8.75;7.85;;;;;;;16.29;67.12;94239.59;5111664;28;20032;-58
2021/08/14 03:31:56;;;;;;;11.85;7.05;;;;;;;16.19;66.68;94247.09;5111746;28;20031;-58
2021/08/14 03:34:21;;;;;;;10.18;7.30;;;;;;;16.12;66.62;94245.09;5110984;28;20020;-58
2021/08/14 03:36:46;;;;;;;13.73;7.18;;;;;;;16.06;67.19;94244.56;5111033;28;20027;-58
2021/08/14 03:39:12;;;;;;;12.18;7.38;;;;;;;16.08;67.35;94244.75;5111762;28;20123;-58
2021/08/14 03:41:37;;;;;;;10.35;7.55;;;;;;;16.03;67.65;94245.69;5111448;28;20031;-55
2021/08/14 03:44:03;;;;;;;9.82;7.60;;;;;;;15.94;68.01;94260.22;5111762;28;20026;-57
2021/08/14 03:46:29;;;;;;;13.60;7.40;;;;;;;15.77;68.21;94258.06;5111262;28;20560;-56
2021/08/14 03:48:55;;;;;;;44.38;9.35;;;;;;;15.78;67.97;94244.91;5111287;28;20034;-56
2021/08/14 03:51:21;;;;;;;17.20;8.40;;;;;;;15.86;67.76;94265.09;5111186;28;20019;-56
2021/08/14 03:53:46;;;;;;;16.50;7.72;;;;;;;15.97;67.47;94258.34;5110277;28;20031;-53
2021/08/14 03:56:11;;;;;;;17.23;8.38;;;;;;;15.96;67.56;94257.59;5110293;28;20036;-55
2021/08/14 03:58:37;;;;;;;12.13;9.07;;;;;;;15.98;68.23;94263.38;5095778;28;20028;-57
2021/08/14 04:01:02;;;;;;;11.50;8.30;;;;;;;16.01;68.01;94253.13;5089274;28;20038;-56
2021/08/14 04:03:29;;;;;;;11.55;8.82;;;;;;;16.03;68.42;94261.66;5089277;28;20027;-56
2021/08/14 04:05:55;;;;;;;19.05;8.77;;;;;;;15.98;68.84;94266.16;5088783;28;20032;-56
2021/08/14 04:08:21;;;;;;;11.82;8.38;;;;;;;15.90;69.57;94257.84;5089708;28;20104;-57
2021/08/14 04:10:46;;;;;;;12.10;8.70;;;;;;;16.01;69.19;94253.13;5109430;28;20027;-57
2021/08/14 04:13:12;;;;;;;11.55;8.85;;;;;;;16.09;68.77;94260.13;5109206;28;20202;-57
2021/08/14 04:15:37;;;;;;;8.18;7.43;;;;;;;16.06;68.68;94258.50;5109686;28;20026;-58
2021/08/14 04:18:03;;;;;;;10.30;7.78;;;;;;;16.07;68.64;94259.97;5110675;28;20027;-59
2021/08/14 04:20:29;;;;;;;12.75;8.75;;;;;;;16.01;68.72;94264.28;5111072;28;20133;-58
2021/08/14 04:22:54;;;;;;;15.88;7.57;;;;;;;15.86;68.88;94248.38;5110717;28;20035;-57
2021/08/14 04:25:20;;;;;;;7.45;6.68;;;;;;;16.03;69.06;94256.84;5110674;28;20035;-59
2021/08/14 04:27:45;;;;;;;9.50;7.72;;;;;;;16.09;69.25;94245.50;5110456;28;20027;-59
2021/08/14 04:30:11;;;;;;;14.43;6.95;;;;;;;16.19;69.37;94260.28;5110863;28;20488;-59
2021/08/14 04:32:37;;;;;;;13.82;7.90;;;;;;;15.89;69.90;94231.31;5110573;27;20024;-58
2021/08/14 04:35:13;;;;;;;9.60;7.68;;;;;;;16.13;69.98;94254.94;5110437;28;20039;-57
2021/08/14 04:37:39;;;;;;;11.55;8.20;;;;;;;16.32;70.24;94257.97;5103926;27;20028;-57
2021/08/14 04:40:07;;;;;;;11.82;7.35;;;;;;;16.43;69.84;94257.53;5099014;28;20036;-57
2021/08/14 04:42:32;;;;;;;8.65;7.25;;;;;;;16.55;69.92;94260.63;5090198;28;20020;-57
2021/08/14 04:44:58;;;;;;;7.97;7.18;;;;;;;16.53;70.24;94261.19;5090153;28;20504;-57
2021/08/14 04:47:23;;;;;;;9.82;7.53;;;;;;;16.60;70.49;94251.31;5090203;28;20044;-52
2021/08/14 04:49:49;;;;;;;8.38;7.57;;;;;;;16.73;70.36;94261.41;5089828;28;20542;-54
2021/08/14 04:52:14;;;;;;;16.30;8.30;;;;;;;16.85;69.66;94262.44;5090160;28;20074;-54
2021/08/14 04:54:40;;;;;;;11.65;8.70;;;;;;;16.91;68.79;94260.16;5089815;28;20024;-54
2021/08/14 04:57:05;;;;;;;10.85;9.15;;;;;;;16.94;69.02;94256.97;5092136;28;20093;-57
2021/08/14 04:59:31;;;;;;;17.90;10.70;;;;;;;16.93;69.51;94254.75;5109167;28;20108;-56
2021/08/14 05:01:57;;;;;;;14.23;9.77;;;;;;;16.82;69.72;94255.97;5106868;28;20023;-56
2021/08/14 05:04:23;;;;;;;13.27;9.77;;;;;;;16.91;70.26;94260.16;5098375;28;20801;-57
2021/08/14 05:06:49;;;;;;;10.63;9.57;;;;;;;16.79;70.65;94250.78;5101029;28;20040;-55
2021/08/14 05:09:16;;;;;;;13.82;12.38;;;;;;;16.83;71.10;94265.78;5108880;28;20483;-55
2021/08/14 05:11:41;;;;;;;69.43;14.35;;;;;;;17.03;70.55;94261.16;5108183;28;20036;-57
2021/08/14 05:14:08;;;;;;;20.77;9.98;;;;;;;17.06;70.81;94254.44;5107551;28;20069;-54
2021/08/14 05:16:34;;;;;;;24.50;16.38;;;;;;;17.11;71.35;94253.44;5110249;28;20103;-50
2021/08/14 05:19:00;;;;;;;16.40;13.98;;;;;;;17.21;71.07;94257.84;5110330;28;20039;-57
2021/08/14 05:21:25;;;;;;;15.60;10.20;;;;;;;17.31;71.05;94246.75;5109946;28;20027;-58
2021/08/14 05:23:51;;;;;;;10.70;9.30;;;;;;;17.42;70.62;94246.25;5107267;28;20024;-54
2021/08/14 05:26:17;;;;;;;11.98;9.55;;;;;;;17.54;70.49;94244.50;5109908;28;20023;-54
2021/08/14 05:28:42;;;;;;;11.15;9.68;;;;;;;17.64;70.69;94248.09;5105423;28;20043;-50
2021/08/14 05:31:08;;;;;;;14.15;9.73;;;;;;;17.70;70.72;94242.25;5107003;28;20028;-57
2021/08/14 05:33:33;;;;;;;10.10;9.07;;;;;;;17.83;70.78;94237.06;5098565;28;20114;-57
2021/08/14 05:35:59;;;;;;;12.05;9.35;;;;;;;18.01;70.18;94244.09;5089853;28;20028;-57
2021/08/14 05:38:24;;;;;;;13.05;8.70;;;;;;;18.06;70.65;94231.91;5089318;28;20028;-57
2021/08/14 05:40:50;;;;;;;12.13;9.98;;;;;;;18.23;70.63;94233.94;5099077;28;20042;-58
2021/08/14 05:43:15;;;;;;;12.20;9.35;;;;;;;18.27;70.09;94242.63;5103892;28;20728;-56
2021/08/14 05:45:41;;;;;;;10.55;8.07;;;;;;;18.34;69.86;94241.03;5094104;28;20479;-57
2021/08/14 05:48:07;;;;;;;19.52;8.88;;;;;;;18.36;69.74;94230.00;5093520;28;20020;-58
2021/08/14 05:50:33;;;;;;;19.63;8.95;;;;;;;18.50;70.05;94231.88;5093234;28;20036;-59
2021/08/14 05:52:58;;;;;;;12.55;7.25;;;;;;;18.65;69.63;94240.03;5093513;28;20038;-59
2021/08/14 05:55:24;;;;;;;16.40;8.18;;;;;;;18.79;69.89;94240.38;5093435;28;20420;-59
2021/08/14 05:57:49;;;;;;;17.77;7.78;;;;;;;18.77;69.36;94223.44;5101903;28;20032;-59
2021/08/14 06:00:15;;;;;;;75.07;11.30;;;;;;;19.02;69.36;94237.19;5098282;28;20035;-58
2021/08/14 06:02:41;;;;;;;35.05;9.02;;;;;;;19.15;68.73;94243.13;5109378;28;20085;-59
2021/08/14 06:05:08;;;;;;;10.32;6.97;;;;;;;19.27;67.95;94240.50;5107483;28;20035;-59
2021/08/14 06:07:33;;;;;;;9.80;6.90;;;;;;;19.37;66.89;94247.59;5092407;28;20044;-59
2021/08/14 06:09:59;;;;;;;8.43;7.63;;;;;;;19.59;66.92;94237.31;5092513;28;20039;-58
2021/08/14 06:12:24;;;;;;;11.23;7.88;;;;;;;19.69;66.62;94235.22;5092758;28;20038;-58
2021/08/14 06:14:50;;;;;;;8.38;7.13;;;;;;;19.78;67.01;94234.50;5092766;28;20028;-58
2021/08/14 06:17:15;;;;;;;18.85;8.07;;;;;;;19.94;65.80;94240.53;5092458;28;20031;-58
2021/08/14 06:19:41;;;;;;;32.63;8.13;;;;;;;20.10;64.57;94239.63;5092644;28;20070;-59
2021/08/14 06:22:06;;;;;;;8.80;7.18;;;;;;;20.21;64.78;94239.03;5092997;28;20073;-58
2021/08/14 06:24:32;;;;;;;9.60;6.63;;;;;;;20.37;64.98;94236.63;5091443;28;20416;-58
2021/08/14 06:26:57;;;;;;;10.43;7.28;;;;;;;20.37;64.95;94228.97;5093016;28;20412;-58
2021/08/14 06:29:22;;;;;;;9.15;7.10;;;;;;;20.42;63.43;94241.22;5100939;28;20034;-60
2021/08/14 06:31:48;;;;;;;8.25;6.72;;;;;;;20.45;63.26;94231.59;5092379;28;20064;-60
2021/08/14 06:34:13;;;;;;;8.68;6.57;;;;;;;20.53;63.79;94226.53;5098293;28;20028;-59
2021/08/14 06:36:39;;;;;;;41.25;8.63;;;;;;;20.55;63.27;94226.69;5102094;28;20016;-58
2021/08/14 06:39:04;;;;;;;8.73;6.95;;;;;;;20.60;63.41;94217.22;5113042;28;20043;-58
2021/08/14 06:41:30;;;;;;;10.20;6.20;;;;;;;20.82;62.04;94229.97;5112607;28;20019;-60
2021/08/14 06:43:55;;;;;;;22.73;8.48;;;;;;;20.89;62.28;94226.25;5112921;28;20076;-60
2021/08/14 06:46:21;;;;;;;23.58;7.43;;;;;;;21.10;61.80;94229.09;5112575;28;20027;-59
2021/08/14 06:48:46;;;;;;;9.57;6.47;;;;;;;21.22;61.01;94229.19;5105499;28;20027;-58
2021/08/14 06:51:13;;;;;;;8.93;6.30;;;;;;;21.41;59.81;94214.28;5096367;28;20042;-58
2021/08/14 06:53:39;;;;;;;6.70;5.75;;;;;;;21.45;59.10;94206.13;5099187;28;20027;-57
2021/08/14 06:56:04;;;;;;;22.75;7.20;;;;;;;21.70;58.22;94220.44;5102765;28;20070;-59
2021/08/14 06:58:30;;;;;;;9.15;6.30;;;;;;;21.78;57.65;94218.13;5103956;28;20492;-58
2021/08/14 07:00:55;;;;;;;7.53;5.57;;;;;;;21.89;57.65;94214.66;5101079;28;20068;-58
2021/08/14 07:03:21;;;;;;;10.30;6.70;;;;;;;22.04;58.07;94231.09;5100015;28;20024;-57
2021/08/14 07:05:46;;;;;;;21.40;5.90;;;;;;;22.20;56.30;94222.97;5101491;28;20496;-59
2021/08/14 07:08:12;;;;;;;11.68;7.20;;;;;;;22.29;55.95;94224.91;5101499;28;20111;-58
2021/08/14 07:10:37;;;;;;;10.55;6.35;;;;;;;22.49;55.75;94226.19;5100546;27;20020;-59
2021/08/14 07:13:03;;;;;;;7.13;6.43;;;;;;;22.63;55.05;94216.56;5101890;28;20103;-58
2021/08/14 07:15:29;;;;;;;15.32;6.78;;;;;;;22.75;55.64;94219.41;5100096;28;20050;-58
2021/08/14 07:17:54;;;;;;;5.88;5.25;;;;;;;22.91;53.51;94206.31;5100479;27;20016;-58
2021/08/14 07:20:20;;;;;;;6.30;5.70;;;;;;;22.93;53.08;94205.69;5098765;28;20026;-57
2021/08/14 07:22:45;;;;;;;12.10;6.25;;;;;;;23.16;54.33;94205.66;5096502;28;20035;-57
2021/08/14 07:25:11;;;;;;;32.15;8.75;;;;;;;23.38;51.13;94200.63;5098286;28;20023;-58
2021/08/14 07:27:36;;;;;;;11.32;6.43;;;;;;;23.86;50.40;94204.16;5095949;28;20016;-57
2021/08/14 07:30:03;;;;;;;10.43;5.35;;;;;;;24.74;47.80;94207.63;5101520;28;20023;-57
2021/08/14 07:32:28;;;;;;;19.67;5.05;;;;;;;25.25;45.25;94197.63;5099513;28;20072;-60
2021/08/14 07:34:55;;;;;;;11.95;4.50;;;;;;;25.86;42.34;94195.78;5100234;28;20016;-58
2021/08/14 07:37:20;;;;;;;8.82;4.28;;;;;;;26.84;40.83;94196.22;5100844;28;20462;-59
2021/08/14 07:39:46;;;;;;;10.38;4.50;;;;;;;28.49;37.25;94211.78;5098996;27;20077;-58
2021/08/14 07:42:11;;;;;;;5.50;3.80;;;;;;;29.77;34.46;94201.69;5100686;28;20077;-59
2021/08/14 07:44:37;;;;;;;28.48;4.70;;;;;;;31.36;31.78;94201.03;5100484;28;20474;-58
2021/08/14 07:47:02;;;;;;;6.10;4.13;;;;;;;32.87;28.66;94202.09;5099059;28;20061;-58
2021/08/14 07:49:28;;;;;;;5.97;3.95;;;;;;;33.78;26.82;94198.28;5098483;28;20095;-59
2021/08/14 07:51:53;;;;;;;16.95;4.93;;;;;;;34.83;25.14;94200.81;5100042;28;20028;-59
2021/08/14 07:54:19;;;;;;;4.25;3.78;;;;;;;35.16;24.19;94196.28;5101021;28;20060;-58
2021/08/14 07:56:44;;;;;;;5.75;3.75;;;;;;;35.19;24.37;94197.03;5098852;28;20457;-58
2021/08/14 07:59:09;;;;;;;9.27;4.43;;;;;;;35.99;24.10;94203.06;5100677;28;20543;-58
2021/08/14 08:01:35;;;;;;;4.90;3.83;;;;;;;36.70;23.15;94192.94;5099375;28;20023;-59
2021/08/14 08:04:00;;;;;;;4.35;3.95;;;;;;;35.08;23.36;94201.19;5099121;27;20024;-56
2021/08/14 08:06:26;;;;;;;4.53;3.80;;;;;;;35.08;24.10;94195.47;5100651;28;20036;-60
2021/08/14 08:08:51;;;;;;;5.10;4.25;;;;;;;35.71;23.67;94189.81;5099870;28;20027;-58
2021/08/14 08:11:17;;;;;;;6.03;4.30;;;;;;;37.29;22.63;94191.91;5100282;28;20016;-60
2021/08/14 08:13:42;;;;;;;5.35;4.22;;;;;;;38.56;20.38;94184.38;5098554;28;20107;-60
2021/08/14 08:16:08;;;;;;;15.63;4.53;;;;;;;39.66;19.25;94188.53;5100337;28;20433;-61
2021/08/14 08:18:34;;;;;;;11.13;4.38;;;;;;;39.62;19.28;94182.03;5099243;28;20015;-60
2021/08/14 08:20:59;;;;;;;14.77;4.38;;;;;;;40.85;18.06;94187.81;5098754;28;20028;-59
2021/08/14 08:23:25;;;;;;;5.30;4.30;;;;;;;41.56;16.95;94188.53;5098682;28;20020;-59
2021/08/14 08:25:50;;;;;;;5.53;4.78;;;;;;;42.28;15.61;94178.19;5103160;27;20027;-62
2021/08/14 08:28:20;;;;;;;14.27;10.07;;;;;;;41.66;15.50;94187.00;5094394;28;20027;-58
2021/08/14 08:30:46;;;;;;;7.47;6.88;;;;;;;41.60;14.29;94195.75;5108595;28;20408;-58
2021/08/14 08:33:11;;;;;;;24.75;19.48;;;;;;;41.74;14.50;94187.63;5109903;28;20028;-58
2021/08/14 08:35:37;;;;;;;17.88;16.10;;;;;;;40.53;15.26;94188.06;5109625;28;20395;-58
2021/08/14 08:38:02;;;;;;;12.35;10.73;;;;;;;40.43;16.08;94180.19;5109514;27;20027;-58
2021/08/14 08:40:32;;;;;;;9.95;9.00;;;;;;;39.33;15.91;94190.78;5100446;28;20028;-59
2021/08/14 08:42:58;;;;;;;19.65;14.43;;;;;;;38.50;17.23;94193.03;5089543;28;20053;-59
2021/08/14 08:45:23;;;;;;;42.22;29.00;;;;;;;38.16;17.23;94195.13;5089199;28;20020;-58
2021/08/14 08:47:50;;;;;;;9.45;8.60;;;;;;;38.09;17.43;94179.97;5089308;28;20501;-58
2021/08/14 08:50:15;;;;;;;11.57;10.02;;;;;;;38.34;17.28;94181.47;5093759;28;20102;-58
2021/08/14 08:52:42;;;;;;;15.93;14.07;;;;;;;38.53;18.44;94173.56;5109638;28;20106;-58
2021/08/14 08:55:13;;;;;;;17.45;11.68;;;;;;;39.07;16.72;94172.78;5109474;28;20053;-58
2021/08/14 08:57:38;;;;;;;18.27;14.55;;;;;;;38.77;16.95;94169.97;5102688;28;20121;-59
2021/08/14 09:00:05;;;;;;;9.23;7.63;;;;;;;37.73;19.13;94177.69;5088978;28;20532;-59
2021/08/14 09:02:32;;;;;;;8.20;7.45;;;;;;;36.40;19.04;94174.00;5089040;28;20020;-60
2021/08/14 09:05:12;;;;;;;10.13;6.38;;;;;;;35.52;21.58;94176.66;5088595;28;20028;-59
2021/08/14 09:07:39;;;;;;;27.00;18.02;;;;;;;36.51;19.82;94174.81;5088732;28;20115;-59
2021/08/14 09:10:06;;;;;;;7.68;6.32;;;;;;;37.42;18.58;94176.16;5088745;28;20042;-59
2021/08/14 09:12:39;;;;;;;6.72;5.78;;;;;;;38.63;17.60;94164.88;5089358;28;20046;-59
2021/08/14 09:15:16;;;;;;;7.43;6.43;;;;;;;38.92;16.26;94172.06;5093141;28;20036;-58
2021/08/14 09:17:42;;;;;;;7.28;6.30;;;;;;;39.04;15.90;94169.19;5092899;28;20020;-60
2021/08/14 09:20:19;;;;;;;7.80;5.72;;;;;;;38.71;17.06;94167.78;5098155;28;20042;-59
2021/08/14 09:23:05;;;;;;;6.90;6.07;;;;;;;38.18;17.40;94175.66;5110212;28;20027;-61
2021/08/14 09:26:00;;;;;;;7.68;6.80;;;;;;;37.69;17.76;94168.31;5112290;28;20051;-59
2021/08/14 09:28:30;;;;;;;7.00;5.85;;;;;;;38.70;16.29;94165.63;5103119;28;20035;-57
2021/08/14 09:30:58;;;;;;;5.40;4.90;;;;;;;39.12;15.54;94162.66;5112501;28;20034;-58
2021/08/14 09:33:26;;;;;;;5.32;4.50;;;;;;;39.53;15.29;94161.09;5113019;28;20024;-58
2021/08/14 09:35:54;;;;;;;4.90;4.40;;;;;;;39.28;15.47;94151.09;5112818;28;20492;-57
2021/08/14 09:38:19;;;;;;;5.50;4.97;;;;;;;38.86;15.44;94156.94;5112346;28;20031;-57
2021/08/14 09:40:46;;;;;;;5.78;5.28;;;;;;;39.47;16.05;94155.34;5113164;28;20028;-59
2021/08/14 09:43:32;;;;;;;7.63;4.95;;;;;;;40.13;15.21;94152.13;5112804;28;20019;-59
2021/08/14 09:45:57;;;;;;;6.80;5.93;;;;;;;40.59;14.91;94151.09;5101723;28;20020;-58
2021/08/14 09:48:25;;;;;;;10.27;7.65;;;;;;;39.10;15.65;94151.84;5111602;28;20478;-59
2021/08/14 09:50:52;;;;;;;9.00;7.28;;;;;;;39.04;16.61;94148.25;5111186;28;20056;-58
2021/08/14 09:53:19;;;;;;;5.75;5.20;;;;;;;39.50;15.53;94148.13;5112324;28;20020;-58
2021/08/14 09:55:47;;;;;;;6.72;4.68;;;;;;;40.28;15.96;94149.16;5112263;28;20208;-59
2021/08/14 09:58:15;;;;;;;4.53;4.15;;;;;;;40.78;13.63;94145.88;5100520;28;20024;-58
2021/08/14 10:00:41;;;;;;;;;;;;;;;40.99;15.38;94129.75;5092675;28;20044;-59
2021/08/14 10:03:07;;;;;;;9.00;4.70;;;;;;;40.92;14.30;94124.75;5091124;28;20285;-57
2021/08/14 10:05:33;;;;;;;6.13;5.00;;;;;;;40.84;14.40;94140.03;5091265;28;20024;-58
2021/08/14 10:08:00;;;;;;;7.10;4.65;;;;;;;41.26;13.65;94119.31;5092371;28;20040;-59
2021/08/14 10:10:26;;;;;;;5.70;4.90;;;;;;;40.43;13.91;94119.41;5092502;28;20492;-59
2021/08/14 10:12:51;;;;;;;6.55;4.63;;;;;;;40.02;14.80;94127.66;5092567;28;20020;-57
2021/08/14 10:15:17;;;;;;;6.00;4.90;;;;;;;39.98;15.33;94121.13;5091477;28;20035;-59
2021/08/14 10:17:43;;;;;;;4.78;4.18;;;;;;;38.24;16.54;94123.03;5091200;28;20035;-58
2021/08/14 10:20:09;;;;;;;4.95;4.30;;;;;;;36.57;18.84;94120.19;5090936;28;20051;-57
2021/08/14 10:22:34;;;;;;;4.50;4.10;;;;;;;36.65;18.02;94125.28;5091805;28;20410;-59
2021/08/14 10:25:00;;;;;;;12.98;10.98;;;;;;;36.74;18.07;94116.00;5100536;28;20034;-59
2021/08/14 10:27:25;;;;;;;7.18;5.03;;;;;;;36.78;18.13;94115.28;5100212;28;20016;-59
2021/08/14 10:29:53;;;;;;;8.65;7.85;;;;;;;37.53;16.92;94113.53;5091845;28;20119;-59
2021/08/14 10:32:31;;;;;;;4.10;3.72;;;;;;;38.34;15.97;94106.47;5092279;28;20024;-57
2021/08/14 10:35:20;;;;;;;4.40;3.92;;;;;;;38.83;15.24;94103.53;5092262;28;20315;-56
2021/08/14 10:37:47;;;;;;;5.35;3.72;;;;;;;39.54;15.26;94096.06;5085013;28;20044;-57
2021/08/14 10:40:14;;;;;;;7.50;5.82;;;;;;;38.95;16.12;94104.22;5092154;28;20024;-57
2021/08/14 10:42:54;;;;;;;9.05;5.32;;;;;;;38.77;16.56;94115.81;5097096;28;20031;-57
2021/08/14 10:45:25;;;;;;;6.30;4.57;;;;;;;38.09;18.24;94110.75;5112142;27;20512;-57
2021/08/14 10:47:50;;;;;;;17.33;5.72;;;;;;;38.23;17.91;94104.97;5112422;28;20016;-59
2021/08/14 10:50:31;;;;;;;11.10;8.75;;;;;;;38.18;17.46;94112.22;5110749;28;20023;-57
2021/08/14 10:53:12;;;;;;;4.57;4.15;;;;;;;37.53;17.08;94111.38;5107299;28;20111;-56
2021/08/14 10:55:42;;;;;;;5.07;4.57;;;;;;;38.15;17.10;94102.09;5098892;28;20027;-57
2021/08/14 10:58:29;;;;;;;5.80;5.20;;;;;;;37.86;17.34;94103.50;5097530;28;20013;-59
2021/08/14 11:01:04;;;;;;;15.43;4.85;;;;;;;37.78;17.47;94097.72;5094811;28;20036;-59
2021/08/14 11:03:34;;;;;;;4.18;3.78;;;;;;;37.52;18.14;94089.75;5095028;28;20062;-57
2021/08/14 11:06:28;;;;;;;5.30;3.40;;;;;;;37.98;16.68;94100.66;5098210;28;20027;-57
2021/08/14 11:09:15;;;;;;;3.95;3.50;;;;;;;38.27;16.73;94095.66;5100098;28;20032;-57
2021/08/14 11:11:40;;;;;;;4.05;3.50;;;;;;;38.10;17.87;94091.31;5102385;28;20027;-58
2021/08/14 11:14:11;;;;;;;4.78;3.58;;;;;;;37.87;16.45;94088.41;5097159;28;20078;-60
2021/08/14 11:17:00;;;;;;;7.30;3.53;;;;;;;37.59;16.40;94088.31;5099963;28;20564;-59
2021/08/14 11:19:54;;;;;;;5.55;4.07;;;;;;;37.80;17.68;94083.34;5100440;28;20047;-58
2021/08/14 11:22:29;;;;;;;5.95;3.35;;;;;;;37.47;16.34;94081.81;5097541;28;20028;-58
2021/08/14 11:24:57;;;;;;;3.92;3.58;;;;;;;36.28;17.75;94072.50;5099851;28;20114;-57
2021/08/14 11:27:28;;;;;;;8.73;5.90;;;;;;;35.45;19.41;94083.22;5098075;28;20035;-58